Time,TemperatureF,DewpointF,PressureIn,WindDirection,WindDirectionDegrees,WindSpeedMPH,WindSpeedGustMPH,Humidity,HourlyPrecipIn,Conditions,Clouds,dailyrainin,SolarRadiationWatts/m^2,SoftwareType,DateUTC
2013-05-29 00:01:00,47.0,40.0,-100.00,SSW,208,0.0,3.0,77,0.00,,,0.17,0.000000,,2013-05-29 06:01:00,
2013-05-29 00:11:00,47.0,40.0,-100.00,SSW,208,0.0,3.0,77,0.00,,,0.17,0.000000,,2013-05-29 06:11:00,
2013-05-29 00:21:00,47.0,40.0,-100.00,SSW,208,0.0,3.0,77,0.00,,,0.17,0.000000,,2013-05-29 06:21:00,
2013-05-29 00:52:00,48.0,43.0,-100.00,SW,219,0.0,0.0,82,0.00,,,0.12,0.000000,,2013-05-29 06:52:00,
2013-05-29 01:01:00,48.0,43.0,-100.00,SW,219,0.0,0.0,82,0.00,,,0.12,0.000000,,2013-05-29 07:01:00,
2013-05-29 01:11:00,48.0,43.0,-100.00,SW,219,0.0,0.0,82,0.00,,,0.12,0.000000,,2013-05-29 07:11:00,
2013-05-29 01:21:00,48.0,43.0,-100.00,SW,219,0.0,0.0,82,0.00,,,0.12,0.000000,,2013-05-29 07:21:00,
2013-05-29 01:52:00,46.0,41.0,-100.00,South,181,0.0,0.0,83,0.00,,,0.11,0.000000,,2013-05-29 07:52:00,
2013-05-29 02:02:00,46.0,41.0,-100.00,South,181,0.0,0.0,83,0.00,,,0.11,0.000000,,2013-05-29 08:02:00,
2013-05-29 02:11:00,46.0,41.0,-100.00,South,181,0.0,0.0,83,0.00,,,0.11,0.000000,,2013-05-29 08:11:00,
2013-05-29 02:21:00,46.0,41.0,-100.00,South,181,0.0,0.0,83,0.00,,,0.11,0.000000,,2013-05-29 08:21:00,
2013-05-29 02:52:00,46.0,41.0,-100.00,SSE,168,0.0,0.0,84,0.00,,,0.11,0.000000,,2013-05-29 08:52:00,
2013-05-29 03:01:00,46.0,41.0,-100.00,SSE,168,0.0,0.0,84,0.00,,,0.11,0.000000,,2013-05-29 09:01:00,
2013-05-29 03:11:00,46.0,41.0,-100.00,SSE,168,0.0,0.0,84,0.00,,,0.11,0.000000,,2013-05-29 09:11:00,
2013-05-29 03:21:00,46.0,41.0,-100.00,SSE,168,0.0,0.0,84,0.00,,,0.11,0.000000,,2013-05-29 09:21:00,
2013-05-29 03:52:00,43.0,40.0,-100.00,SSW,212,0.0,3.0,89,0.00,,,0.10,0.000000,,2013-05-29 09:52:00,
2013-05-29 04:02:00,43.0,40.0,-100.00,SSW,212,0.0,3.0,89,0.00,,,0.10,0.000000,,2013-05-29 10:02:00,
2013-05-29 04:12:00,43.0,40.0,-100.00,SSW,212,0.0,3.0,89,0.00,,,0.10,0.000000,,2013-05-29 10:12:00,
2013-05-29 04:22:00,43.0,40.0,-100.00,SSW,212,0.0,3.0,89,0.00,,,0.10,0.000000,,2013-05-29 10:22:00,
2013-05-29 04:53:00,41.0,38.0,-100.00,South,188,0.0,3.0,90,0.00,,,0.08,0.000000,,2013-05-29 10:53:00,
2013-05-29 05:02:00,41.0,38.0,-100.00,South,188,0.0,3.0,90,0.00,,,0.08,0.000000,,2013-05-29 11:02:00,
2013-05-29 05:11:00,41.0,38.0,-100.00,South,188,0.0,3.0,90,0.00,,,0.08,0.000000,,2013-05-29 11:11:00,
2013-05-29 05:21:00,41.0,38.0,-100.00,South,188,0.0,3.0,90,0.00,,,0.08,0.000000,,2013-05-29 11:21:00,
2013-05-29 05:52:00,39.0,37.0,-100.00,SW,215,0.0,0.0,94,0.00,,,0.05,0.000000,,2013-05-29 11:52:00,
2013-05-29 06:01:00,39.0,37.0,-100.00,SW,215,0.0,0.0,94,0.00,,,0.05,0.000000,,2013-05-29 12:01:00,
2013-05-29 06:11:00,39.0,37.0,-100.00,SW,215,0.0,0.0,94,0.00,,,0.05,0.000000,,2013-05-29 12:11:00,
2013-05-29 06:21:00,39.0,37.0,-100.00,SW,215,0.0,0.0,94,0.00,,,0.05,0.000000,,2013-05-29 12:21:00,
2013-05-29 06:52:00,38.0,37.0,-100.00,East,88,0.0,0.0,97,0.00,,,0.04,0.000000,,2013-05-29 12:52:00,
2013-05-29 07:01:00,38.0,37.0,-100.00,East,88,0.0,0.0,97,0.00,,,0.04,0.000000,,2013-05-29 13:01:00,
2013-05-29 07:11:00,38.0,37.0,-100.00,East,88,0.0,0.0,97,0.00,,,0.04,0.000000,,2013-05-29 13:11:00,
2013-05-29 07:21:00,38.0,37.0,-100.00,East,88,0.0,0.0,97,0.00,,,0.04,0.000000,,2013-05-29 13:21:00,
2013-05-29 07:53:00,38.0,38.0,-100.00,North,4,0.0,0.0,99,0.00,,,0.04,26.000000,,2013-05-29 13:53:00,
2013-05-29 08:02:00,38.0,38.0,-100.00,North,4,0.0,0.0,99,0.00,,,0.04,26.000000,,2013-05-29 14:02:00,
2013-05-29 08:11:00,38.0,38.0,-100.00,North,4,0.0,0.0,99,0.00,,,0.04,26.000000,,2013-05-29 14:11:00,
2013-05-29 08:21:00,38.0,38.0,-100.00,North,4,0.0,0.0,99,0.00,,,0.04,26.000000,,2013-05-29 14:21:00,
2013-05-29 08:52:00,41.0,39.0,-100.00,NNE,27,0.0,0.0,91,0.00,,,0.04,122.000000,,2013-05-29 14:52:00,
2013-05-29 09:01:00,41.0,39.0,-100.00,NNE,27,0.0,0.0,91,0.00,,,0.04,122.000000,,2013-05-29 15:01:00,
2013-05-29 09:11:00,41.0,39.0,-100.00,NNE,27,0.0,0.0,91,0.00,,,0.04,122.000000,,2013-05-29 15:11:00,
2013-05-29 09:21:00,41.0,39.0,-100.00,NNE,27,0.0,0.0,91,0.00,,,0.04,122.000000,,2013-05-29 15:21:00,
2013-05-29 09:53:00,46.0,40.0,-100.00,North,8,2.0,6.0,78,0.00,,,0.04,216.000000,,2013-05-29 15:53:00,
2013-05-29 10:03:00,46.0,40.0,-100.00,North,8,2.0,6.0,78,0.00,,,0.04,216.000000,,2013-05-29 16:03:00,
2013-05-29 10:12:00,46.0,40.0,-100.00,North,8,2.0,6.0,78,0.00,,,0.04,216.000000,,2013-05-29 16:12:00,
2013-05-29 10:22:00,46.0,40.0,-100.00,North,8,2.0,6.0,78,0.00,,,0.04,216.000000,,2013-05-29 16:22:00,
2013-05-29 10:52:00,53.0,41.0,-100.00,North,352,1.0,6.0,64,0.00,,,0.04,393.000000,,2013-05-29 16:52:00,
2013-05-29 11:02:00,53.0,41.0,-100.00,North,352,1.0,6.0,64,0.00,,,0.04,393.000000,,2013-05-29 17:02:00,
2013-05-29 11:12:00,53.0,41.0,-100.00,North,352,1.0,6.0,64,0.00,,,0.04,393.000000,,2013-05-29 17:12:00,
2013-05-29 11:22:00,53.0,41.0,-100.00,North,352,1.0,6.0,64,0.00,,,0.04,393.000000,,2013-05-29 17:22:00,
2013-05-29 11:52:00,57.0,41.0,-100.00,North,4,3.0,8.0,54,0.00,,,0.04,701.000000,,2013-05-29 17:52:00,
2013-05-29 12:01:00,57.0,41.0,-100.00,North,4,3.0,8.0,54,0.00,,,0.04,701.000000,,2013-05-29 18:01:00,
2013-05-29 12:13:00,57.0,41.0,-100.00,North,4,3.0,8.0,54,0.00,,,0.04,701.000000,,2013-05-29 18:13:00,
2013-05-29 12:22:00,57.0,41.0,-100.00,North,4,3.0,8.0,54,0.00,,,0.04,701.000000,,2013-05-29 18:22:00,
2013-05-29 12:52:00,58.0,36.0,-100.00,North,357,5.0,11.0,44,0.00,,,0.04,842.000000,,2013-05-29 18:52:00,
2013-05-29 13:01:00,58.0,36.0,-100.00,North,357,5.0,11.0,44,0.00,,,0.04,842.000000,,2013-05-29 19:01:00,
2013-05-29 13:11:00,58.0,36.0,-100.00,North,357,5.0,11.0,44,0.00,,,0.04,842.000000,,2013-05-29 19:11:00,
2013-05-29 13:21:00,58.0,36.0,-100.00,North,357,5.0,11.0,44,0.00,,,0.04,842.000000,,2013-05-29 19:21:00,
2013-05-29 13:53:00,63.0,34.0,-100.00,North,4,4.0,13.0,34,0.00,,,0.04,970.000000,,2013-05-29 19:53:00,
2013-05-29 14:02:00,63.0,34.0,-100.00,North,4,4.0,13.0,34,0.00,,,0.04,970.000000,,2013-05-29 20:02:00,
2013-05-29 14:11:00,63.0,34.0,-100.00,North,4,4.0,13.0,34,0.00,,,0.04,970.000000,,2013-05-29 20:11:00,
2013-05-29 14:22:00,63.0,34.0,-100.00,North,4,4.0,13.0,34,0.00,,,0.04,970.000000,,2013-05-29 20:22:00,
2013-05-29 14:52:00,62.0,34.0,-100.00,NNW,327,3.0,12.0,35,0.00,,,0.04,604.000000,,2013-05-29 20:52:00,
2013-05-29 15:02:00,62.0,34.0,-100.00,NNW,327,3.0,12.0,35,0.00,,,0.04,604.000000,,2013-05-29 21:02:00,
2013-05-29 15:12:00,62.0,34.0,-100.00,NNW,327,3.0,12.0,35,0.00,,,0.04,604.000000,,2013-05-29 21:12:00,
2013-05-29 15:22:00,62.0,34.0,-100.00,NNW,327,3.0,12.0,35,0.00,,,0.04,604.000000,,2013-05-29 21:22:00,
2013-05-29 15:53:00,66.0,34.0,-100.00,ESE,102,5.0,11.0,30,0.00,,,0.03,662.000000,,2013-05-29 21:53:00,
2013-05-29 16:03:00,66.0,34.0,-100.00,ESE,102,5.0,11.0,30,0.00,,,0.03,662.000000,,2013-05-29 22:03:00,
2013-05-29 16:12:00,66.0,34.0,-100.00,ESE,102,5.0,11.0,30,0.00,,,0.03,662.000000,,2013-05-29 22:12:00,
2013-05-29 16:23:00,66.0,34.0,-100.00,ESE,102,5.0,11.0,30,0.00,,,0.03,662.000000,,2013-05-29 22:23:00,
2013-05-29 16:53:00,67.0,32.0,-100.00,NNW,330,5.0,11.0,27,0.00,,,0.00,877.000000,,2013-05-29 22:53:00,
2013-05-29 17:02:00,67.0,32.0,-100.00,NNW,330,5.0,11.0,27,0.00,,,0.00,877.000000,,2013-05-29 23:02:00,
2013-05-29 17:12:00,67.0,32.0,-100.00,NNW,330,5.0,11.0,27,0.00,,,0.00,877.000000,,2013-05-29 23:12:00,
2013-05-29 17:21:00,67.0,32.0,-100.00,NNW,330,5.0,11.0,27,0.00,,,0.00,877.000000,,2013-05-29 23:21:00,
2013-05-29 17:53:00,64.0,31.0,-100.00,North,352,9.0,20.0,29,0.00,,,0.00,514.000000,,2013-05-29 23:53:00,
2013-05-29 18:01:00,64.0,31.0,-100.00,North,352,9.0,20.0,29,0.00,,,0.00,514.000000,,2013-05-30 00:01:00,
2013-05-29 18:11:00,64.0,31.0,-100.00,North,352,9.0,20.0,29,0.00,,,0.00,514.000000,,2013-05-30 00:11:00,
2013-05-29 18:21:00,64.0,31.0,-100.00,North,352,9.0,20.0,29,0.00,,,0.00,514.000000,,2013-05-30 00:21:00,
2013-05-29 18:52:00,59.0,34.0,-100.00,SW,214,5.0,17.0,39,0.00,,,0.00,297.000000,,2013-05-30 00:52:00,
2013-05-29 19:01:00,59.0,34.0,-100.00,SW,214,5.0,17.0,39,0.00,,,0.00,297.000000,,2013-05-30 01:01:00,
2013-05-29 19:11:00,59.0,34.0,-100.00,SW,214,5.0,17.0,39,0.00,,,0.00,297.000000,,2013-05-30 01:11:00,
2013-05-29 19:21:00,59.0,34.0,-100.00,SW,214,5.0,17.0,39,0.00,,,0.00,297.000000,,2013-05-30 01:21:00,
2013-05-29 19:52:00,52.0,38.0,-100.00,South,170,6.0,41.0,59,0.01,,,0.01,79.000000,,2013-05-30 01:52:00,
2013-05-29 20:01:00,52.0,38.0,-100.00,South,170,6.0,41.0,59,0.01,,,0.01,79.000000,,2013-05-30 02:01:00,
2013-05-29 20:11:00,52.0,38.0,-100.00,South,170,6.0,41.0,59,0.01,,,0.01,79.000000,,2013-05-30 02:11:00,
2013-05-29 20:21:00,52.0,38.0,-100.00,South,170,6.0,41.0,59,0.01,,,0.01,79.000000,,2013-05-30 02:21:00,
2013-05-29 21:01:00,51.0,39.0,-100.00,ESE,110,0.0,13.0,64,0.00,,,0.01,34.000000,,2013-05-30 03:01:00,
2013-05-29 21:11:00,51.0,39.0,-100.00,ESE,110,0.0,13.0,64,0.00,,,0.01,34.000000,,2013-05-30 03:11:00,
2013-05-29 21:21:00,51.0,39.0,-100.00,ESE,110,0.0,13.0,64,0.00,,,0.01,34.000000,,2013-05-30 03:21:00,
2013-05-29 21:53:00,49.0,40.0,-100.00,SE,142,0.0,4.0,72,0.00,,,0.01,24.000000,,2013-05-30 03:53:00,
2013-05-29 22:02:00,49.0,40.0,-100.00,SE,142,0.0,4.0,72,0.00,,,0.01,24.000000,,2013-05-30 04:02:00,
2013-05-29 22:12:00,49.0,40.0,-100.00,SE,142,0.0,4.0,72,0.00,,,0.01,24.000000,,2013-05-30 04:12:00,
2013-05-29 22:23:00,49.0,40.0,-100.00,SE,142,0.0,4.0,72,0.00,,,0.01,24.000000,,2013-05-30 04:23:00,
2013-05-29 22:53:00,46.0,39.0,-100.00,SE,142,0.0,2.0,75,0.00,,,0.01,1.000000,,2013-05-30 04:53:00,
2013-05-29 23:02:00,46.0,39.0,-100.00,SE,142,0.0,2.0,75,0.00,,,0.01,1.000000,,2013-05-30 05:02:00,
2013-05-29 23:12:00,46.0,39.0,-100.00,SE,142,0.0,2.0,75,0.00,,,0.01,1.000000,,2013-05-30 05:12:00,
2013-05-29 23:21:00,46.0,39.0,-100.00,SE,142,0.0,2.0,75,0.00,,,0.01,1.000000,,2013-05-30 05:21:00,
2013-05-29 23:52:00,45.0,39.0,-100.00,NE,48,0.0,4.0,78,0.00,,,0.01,0.000000,,2013-05-30 05:52:00,